sensor_id;sensor_type;location;lat;lon;timestamp;pressure;altitude;pressure_sealevel;temperature;humidity
36138;BME280;67787;50.074;21.904;2023-04-01T00:01:24;97337.36;;;8.62;70.88
36138;BME280;67787;50.074;21.904;2023-04-01T00:03:54;97332.23;;;8.60;71.06
36138;BME280;67787;50.074;21.904;2023-04-01T00:06:22;97336.17;;;8.57;70.98
36138;BME280;67787;50.074;21.904;2023-04-01T00:08:50;97338.76;;;8.55;70.94
36138;BME280;67787;50.074;21.904;2023-04-01T00:11:19;97337.25;;;8.52;71.06
36138;BME280;67787;50.074;21.904;2023-04-01T00:13:47;97341.80;;;8.48;70.99
36138;BME280;67787;50.074;21.904;2023-04-01T00:16:15;97340.92;;;8.46;70.89
36138;BME280;67787;50.074;21.904;2023-04-01T00:18:50;97328.02;;;8.42;71.10
36138;BME280;67787;50.074;21.904;2023-04-01T00:21:19;97329.46;;;8.40;71.02
36138;BME280;67787;50.074;21.904;2023-04-01T00:23:49;97321.15;;;8.38;71.12
36138;BME280;67787;50.074;21.904;2023-04-01T00:26:17;97324.03;;;8.35;71.11
36138;BME280;67787;50.074;21.904;2023-04-01T00:28:49;97322.82;;;8.33;71.10
36138;BME280;67787;50.074;21.904;2023-04-01T00:31:17;97321.90;;;8.31;71.07
36138;BME280;67787;50.074;21.904;2023-04-01T00:33:47;97323.07;;;8.30;71.19
36138;BME280;67787;50.074;21.904;2023-04-01T00:36:20;97321.29;;;8.31;71.43
36138;BME280;67787;50.074;21.904;2023-04-01T00:38:49;97319.75;;;8.32;71.41
36138;BME280;67787;50.074;21.904;2023-04-01T00:41:19;97317.46;;;8.32;71.28
36138;BME280;67787;50.074;21.904;2023-04-01T00:43:51;97319.80;;;8.31;71.37
36138;BME280;67787;50.074;21.904;2023-04-01T00:46:19;97321.05;;;8.31;71.27
36138;BME280;67787;50.074;21.904;2023-04-01T00:48:50;97320.11;;;8.30;71.33
36138;BME280;67787;50.074;21.904;2023-04-01T00:51:29;97312.23;;;8.29;71.40
36138;BME280;67787;50.074;21.904;2023-04-01T00:53:59;97312.83;;;8.28;71.36
36138;BME280;67787;50.074;21.904;2023-04-01T00:56:35;97312.23;;;8.27;71.45
36138;BME280;67787;50.074;21.904;2023-04-01T00:59:08;97312.21;;;8.27;71.40
36138;BME280;67787;50.074;21.904;2023-04-01T01:01:38;97316.94;;;8.26;71.30
36138;BME280;67787;50.074;21.904;2023-04-01T01:04:07;97311.04;;;8.25;71.51
36138;BME280;67787;50.074;21.904;2023-04-01T01:06:46;97320.05;;;8.25;71.43
36138;BME280;67787;50.074;21.904;2023-04-01T01:09:23;97311.59;;;8.25;71.44
36138;BME280;67787;50.074;21.904;2023-04-01T01:12:18;97307.67;;;8.25;71.53
36138;BME280;67787;50.074;21.904;2023-04-01T01:18:03;97308.70;;;8.25;71.55
36138;BME280;67787;50.074;21.904;2023-04-01T01:38:01;97296.90;;;8.17;71.64
36138;BME280;67787;50.074;21.904;2023-04-01T01:40:32;97300.37;;;8.16;71.59
36138;BME280;67787;50.074;21.904;2023-04-01T01:43:06;97301.58;;;8.14;71.48
36138;BME280;67787;50.074;21.904;2023-04-01T01:45:44;97312.79;;;8.13;71.48
36138;BME280;67787;50.074;21.904;2023-04-01T01:48:15;97316.08;;;8.12;71.64
36138;BME280;67787;50.074;21.904;2023-04-01T01:50:45;97317.36;;;8.11;71.62
36138;BME280;67787;50.074;21.904;2023-04-01T01:53:14;97323.91;;;8.11;71.72
36138;BME280;67787;50.074;21.904;2023-04-01T01:55:45;97324.41;;;8.12;71.73
36138;BME280;67787;50.074;21.904;2023-04-01T01:58:39;97323.96;;;8.13;71.85
36138;BME280;67787;50.074;21.904;2023-04-01T02:01:15;97326.65;;;8.14;71.68
36138;BME280;67787;50.074;21.904;2023-04-01T02:03:45;97324.11;;;8.13;71.71
36138;BME280;67787;50.074;21.904;2023-04-01T02:06:17;97322.77;;;8.12;71.78
36138;BME280;67787;50.074;21.904;2023-04-01T02:08:59;97324.13;;;8.11;71.83
36138;BME280;67787;50.074;21.904;2023-04-01T02:11:51;97330.52;;;8.09;71.84
36138;BME280;67787;50.074;21.904;2023-04-01T02:14:30;97335.27;;;8.07;71.88
36138;BME280;67787;50.074;21.904;2023-04-01T02:17:07;97337.78;;;8.06;71.95
36138;BME280;67787;50.074;21.904;2023-04-01T02:19:38;97336.14;;;8.05;71.84
36138;BME280;67787;50.074;21.904;2023-04-01T02:22:11;97336.74;;;8.02;72.00
36138;BME280;67787;50.074;21.904;2023-04-01T02:24:41;97338.64;;;8.01;71.93
36138;BME280;67787;50.074;21.904;2023-04-01T02:27:10;97334.34;;;7.99;71.82
36138;BME280;67787;50.074;21.904;2023-04-01T02:29:41;97332.41;;;7.97;71.92
36138;BME280;67787;50.074;21.904;2023-04-01T02:32:09;97331.21;;;7.95;71.88
36138;BME280;67787;50.074;21.904;2023-04-01T02:34:38;97336.98;;;7.94;71.77
36138;BME280;67787;50.074;21.904;2023-04-01T02:37:07;97336.59;;;7.92;71.93
36138;BME280;67787;50.074;21.904;2023-04-01T02:39:35;97335.43;;;7.91;72.03
36138;BME280;67787;50.074;21.904;2023-04-01T02:42:04;97336.39;;;7.90;71.86
36138;BME280;67787;50.074;21.904;2023-04-01T02:44:33;97338.16;;;7.90;71.95
36138;BME280;67787;50.074;21.904;2023-04-01T02:47:00;97337.66;;;7.89;72.15
36138;BME280;67787;50.074;21.904;2023-04-01T02:49:29;97338.33;;;7.90;71.96
36138;BME280;67787;50.074;21.904;2023-04-01T02:51:57;97339.11;;;7.91;72.04
36138;BME280;67787;50.074;21.904;2023-04-01T02:54:25;97340.02;;;7.93;72.07
36138;BME280;67787;50.074;21.904;2023-04-01T02:56:53;97342.44;;;7.95;72.06
36138;BME280;67787;50.074;21.904;2023-04-01T02:59:20;97342.11;;;7.97;71.98
36138;BME280;67787;50.074;21.904;2023-04-01T03:01:48;97343.71;;;7.99;72.08
36138;BME280;67787;50.074;21.904;2023-04-01T03:04:17;97349.17;;;8.01;72.15
36138;BME280;67787;50.074;21.904;2023-04-01T03:06:45;97351.88;;;8.02;72.21
36138;BME280;67787;50.074;21.904;2023-04-01T03:09:12;97352.92;;;8.04;72.13
36138;BME280;67787;50.074;21.904;2023-04-01T03:11:40;97353.75;;;8.05;72.14
36138;BME280;67787;50.074;21.904;2023-04-01T03:14:08;97353.78;;;8.05;72.07
36138;BME280;67787;50.074;21.904;2023-04-01T03:16:36;97354.55;;;8.04;72.10
36138;BME280;67787;50.074;21.904;2023-04-01T03:19:04;97351.66;;;8.03;72.04
36138;BME280;67787;50.074;21.904;2023-04-01T03:21:32;97348.34;;;8.02;72.09
36138;BME280;67787;50.074;21.904;2023-04-01T03:24:01;97349.30;;;8.02;72.15
36138;BME280;67787;50.074;21.904;2023-04-01T03:26:29;97350.77;;;8.01;72.10
36138;BME280;67787;50.074;21.904;2023-04-01T03:28:57;97354.14;;;8.01;72.18
36138;BME280;67787;50.074;21.904;2023-04-01T03:31:25;97352.77;;;8.00;72.13
36138;BME280;67787;50.074;21.904;2023-04-01T03:33:54;97355.00;;;7.99;72.05
36138;BME280;67787;50.074;21.904;2023-04-01T03:36:22;97356.11;;;7.99;72.03
36138;BME280;67787;50.074;21.904;2023-04-01T03:38:50;97360.20;;;7.98;72.09
36138;BME280;67787;50.074;21.904;2023-04-01T03:41:18;97364.91;;;7.97;72.07
36138;BME280;67787;50.074;21.904;2023-04-01T03:43:47;97366.23;;;7.96;72.12
36138;BME280;67787;50.074;21.904;2023-04-01T03:46:19;97367.64;;;7.96;72.06
36138;BME280;67787;50.074;21.904;2023-04-01T03:48:47;97367.00;;;7.95;72.13
36138;BME280;67787;50.074;21.904;2023-04-01T03:51:15;97364.78;;;7.94;72.08
36138;BME280;67787;50.074;21.904;2023-04-01T03:53:43;97365.17;;;7.94;72.09
36138;BME280;67787;50.074;21.904;2023-04-01T03:56:11;97363.64;;;7.93;72.10
36138;BME280;67787;50.074;21.904;2023-04-01T03:58:39;97365.70;;;7.94;72.10
36138;BME280;67787;50.074;21.904;2023-04-01T04:01:15;97366.27;;;7.95;72.12
36138;BME280;67787;50.074;21.904;2023-04-01T04:03:44;97362.63;;;7.95;72.12
36138;BME280;67787;50.074;21.904;2023-04-01T04:06:16;97366.08;;;7.94;72.08
36138;BME280;67787;50.074;21.904;2023-04-01T04:08:44;97362.50;;;7.92;72.07
36138;BME280;67787;50.074;21.904;2023-04-01T04:11:13;97365.61;;;7.91;72.07
36138;BME280;67787;50.074;21.904;2023-04-01T04:13:41;97363.49;;;7.91;72.08
36138;BME280;67787;50.074;21.904;2023-04-01T04:16:10;97360.71;;;7.90;72.09
36138;BME280;67787;50.074;21.904;2023-04-01T04:18:39;97362.12;;;7.90;72.07
36138;BME280;67787;50.074;21.904;2023-04-01T04:21:15;97365.48;;;7.90;72.09
36138;BME280;67787;50.074;21.904;2023-04-01T04:23:43;97371.77;;;7.91;72.16
36138;BME280;67787;50.074;21.904;2023-04-01T04:26:13;97365.61;;;7.91;72.10
36138;BME280;67787;50.074;21.904;2023-04-01T04:28:42;97368.21;;;7.92;72.17
36138;BME280;67787;50.074;21.904;2023-04-01T04:31:11;97365.73;;;7.92;72.12
36138;BME280;67787;50.074;21.904;2023-04-01T04:33:39;97368.06;;;7.93;72.13
36138;BME280;67787;50.074;21.904;2023-04-01T04:36:07;97364.81;;;7.94;72.08
36138;BME280;67787;50.074;21.904;2023-04-01T04:38:35;97368.83;;;7.95;72.15
36138;BME280;67787;50.074;21.904;2023-04-01T04:41:11;97367.67;;;7.96;72.17
36138;BME280;67787;50.074;21.904;2023-04-01T04:43:41;97370.71;;;7.97;72.15
36138;BME280;67787;50.074;21.904;2023-04-01T04:46:10;97373.25;;;7.98;72.15
36138;BME280;67787;50.074;21.904;2023-04-01T04:48:38;97371.68;;;8.00;72.14
36138;BME280;67787;50.074;21.904;2023-04-01T04:51:06;97372.88;;;8.01;72.15
36138;BME280;67787;50.074;21.904;2023-04-01T04:53:34;97373.48;;;8.02;72.14
36138;BME280;67787;50.074;21.904;2023-04-01T04:56:02;97372.92;;;8.02;72.05
36138;BME280;67787;50.074;21.904;2023-04-01T04:58:30;97376.81;;;8.04;72.24
36138;BME280;67787;50.074;21.904;2023-04-01T05:00:59;97379.31;;;8.05;72.26
36138;BME280;67787;50.074;21.904;2023-04-01T05:03:27;97377.54;;;8.08;72.12
36138;BME280;67787;50.074;21.904;2023-04-01T05:05:55;97375.08;;;8.10;72.19
36138;BME280;67787;50.074;21.904;2023-04-01T05:08:23;97375.26;;;8.12;72.20
36138;BME280;67787;50.074;21.904;2023-04-01T05:10:51;97379.16;;;8.13;72.10
36138;BME280;67787;50.074;21.904;2023-04-01T05:13:19;97382.13;;;8.15;72.10
36138;BME280;67787;50.074;21.904;2023-04-01T05:15:47;97380.44;;;8.19;72.12
36138;BME280;67787;50.074;21.904;2023-04-01T05:18:16;97384.35;;;8.23;72.09
36138;BME280;67787;50.074;21.904;2023-04-01T05:20:49;97385.02;;;8.27;72.09
36138;BME280;67787;50.074;21.904;2023-04-01T05:23:17;97388.65;;;8.32;72.03
36138;BME280;67787;50.074;21.904;2023-04-01T05:25:45;97389.42;;;8.37;72.13
36138;BME280;67787;50.074;21.904;2023-04-01T05:28:13;97385.16;;;8.41;72.22
36138;BME280;67787;50.074;21.904;2023-04-01T05:30:43;97385.99;;;8.45;72.15
36138;BME280;67787;50.074;21.904;2023-04-01T05:33:12;97390.16;;;8.48;72.14
36138;BME280;67787;50.074;21.904;2023-04-01T05:35:41;97388.35;;;8.53;72.18
36138;BME280;67787;50.074;21.904;2023-04-01T05:38:09;97385.69;;;8.57;72.16
36138;BME280;67787;50.074;21.904;2023-04-01T05:40:37;97389.09;;;8.61;72.07
36138;BME280;67787;50.074;21.904;2023-04-01T05:43:04;97383.55;;;8.65;72.17
36138;BME280;67787;50.074;21.904;2023-04-01T05:45:34;97383.55;;;8.73;72.11
36138;BME280;67787;50.074;21.904;2023-04-01T05:48:02;97384.35;;;8.79;72.11
36138;BME280;67787;50.074;21.904;2023-04-01T05:50:31;97381.62;;;8.86;72.07
36138;BME280;67787;50.074;21.904;2023-04-01T05:52:59;97386.08;;;8.93;72.12
36138;BME280;67787;50.074;21.904;2023-04-01T05:55:26;97389.64;;;9.03;72.03
36138;BME280;67787;50.074;21.904;2023-04-01T05:57:55;97389.84;;;9.12;72.06
36138;BME280;67787;50.074;21.904;2023-04-01T06:00:23;97387.15;;;9.24;72.13
36138;BME280;67787;50.074;21.904;2023-04-01T06:02:51;97387.38;;;9.35;72.01
36138;BME280;67787;50.074;21.904;2023-04-01T06:05:22;97388.50;;;9.45;72.01
36138;BME280;67787;50.074;21.904;2023-04-01T06:07:55;97386.16;;;9.57;71.99
36138;BME280;67787;50.074;21.904;2023-04-01T06:10:39;97384.25;;;9.70;71.97
36138;BME280;67787;50.074;21.904;2023-04-01T06:18:59;97388.16;;;10.23;71.57
36138;BME280;67787;50.074;21.904;2023-04-01T06:35:17;97400.89;;;10.85;71.15
36138;BME280;67787;50.074;21.904;2023-04-01T06:41:27;97401.75;;;10.80;71.35
36138;BME280;67787;50.074;21.904;2023-04-01T06:46:59;97405.36;;;11.01;71.50
36138;BME280;67787;50.074;21.904;2023-04-01T06:49:44;97405.20;;;11.20;71.12
36138;BME280;67787;50.074;21.904;2023-04-01T06:52:19;97405.92;;;11.30;70.44
36138;BME280;67787;50.074;21.904;2023-04-01T06:54:56;97408.13;;;11.33;70.44
36138;BME280;67787;50.074;21.904;2023-04-01T06:57:40;97408.41;;;11.41;70.69
36138;BME280;67787;50.074;21.904;2023-04-01T07:00:27;97405.80;;;11.52;70.71
36138;BME280;67787;50.074;21.904;2023-04-01T07:05:31;97407.80;;;11.73;69.96
36138;BME280;67787;50.074;21.904;2023-04-01T07:08:03;97409.30;;;11.80;70.19
36138;BME280;67787;50.074;21.904;2023-04-01T07:10:50;97410.96;;;11.90;70.03
36138;BME280;67787;50.074;21.904;2023-04-01T07:13:27;97410.89;;;12.00;70.34
36138;BME280;67787;50.074;21.904;2023-04-01T07:16:08;97409.50;;;12.01;69.03
36138;BME280;67787;50.074;21.904;2023-04-01T07:18:54;97412.50;;;12.03;69.94
36138;BME280;67787;50.074;21.904;2023-04-01T07:21:34;97410.73;;;12.15;69.73
36138;BME280;67787;50.074;21.904;2023-04-01T07:24:11;97415.20;;;12.27;69.63
36138;BME280;67787;50.074;21.904;2023-04-01T07:26:43;97415.11;;;12.29;68.04
36138;BME280;67787;50.074;21.904;2023-04-01T07:29:14;97416.47;;;12.30;69.06
36138;BME280;67787;50.074;21.904;2023-04-01T07:32:09;97418.66;;;12.34;69.14
36138;BME280;67787;50.074;21.904;2023-04-01T07:34:52;97417.41;;;12.32;69.01
36138;BME280;67787;50.074;21.904;2023-04-01T07:40:34;97423.42;;;12.21;67.63
36138;BME280;67787;50.074;21.904;2023-04-01T07:43:25;97422.73;;;12.04;68.27
36138;BME280;67787;50.074;21.904;2023-04-01T07:46:22;97419.20;;;11.95;68.46
36138;BME280;67787;50.074;21.904;2023-04-01T07:49:32;97420.05;;;11.95;69.01
36138;BME280;67787;50.074;21.904;2023-04-01T07:52:12;97417.34;;;12.01;68.86
36138;BME280;67787;50.074;21.904;2023-04-01T07:55:01;97419.20;;;12.02;68.20
36138;BME280;67787;50.074;21.904;2023-04-01T07:57:53;97415.91;;;11.99;68.34
36138;BME280;67787;50.074;21.904;2023-04-01T08:00:33;97418.23;;;11.96;68.06
36138;BME280;67787;50.074;21.904;2023-04-01T08:05:57;97413.00;;;11.89;68.26
36138;BME280;67787;50.074;21.904;2023-04-01T08:11:25;97413.14;;;12.02;68.74
36138;BME280;67787;50.074;21.904;2023-04-01T08:22:26;97409.54;;;12.40;68.00
36138;BME280;67787;50.074;21.904;2023-04-01T08:24:57;97408.58;;;12.41;67.98
36138;BME280;67787;50.074;21.904;2023-04-01T08:27:44;97408.27;;;12.43;68.25
36138;BME280;67787;50.074;21.904;2023-04-01T08:38:55;97406.77;;;12.82;67.48
36138;BME280;67787;50.074;21.904;2023-04-01T08:50:05;97403.39;;;12.77;68.21
36138;BME280;67787;50.074;21.904;2023-04-01T09:00:48;97398.28;;;13.25;67.17
36138;BME280;67787;50.074;21.904;2023-04-01T09:03:28;97400.03;;;13.33;67.81
36138;BME280;67787;50.074;21.904;2023-04-01T09:09:23;97406.30;;;13.33;67.34
36138;BME280;67787;50.074;21.904;2023-04-01T09:21:49;97405.42;;;12.99;66.83
36138;BME280;67787;50.074;21.904;2023-04-01T09:27:33;97407.94;;;12.80;66.83
36138;BME280;67787;50.074;21.904;2023-04-01T09:32:46;97410.09;;;12.65;67.03
36138;BME280;67787;50.074;21.904;2023-04-01T09:38:11;97415.91;;;12.74;66.95
36138;BME280;67787;50.074;21.904;2023-04-01T09:40:55;97412.86;;;12.75;65.87
36138;BME280;67787;50.074;21.904;2023-04-01T09:55:05;97406.23;;;12.91;66.33
36138;BME280;67787;50.074;21.904;2023-04-01T09:58:13;97400.90;;;13.10;66.60
36138;BME280;67787;50.074;21.904;2023-04-01T10:09:44;97394.80;;;13.32;66.20
36138;BME280;67787;50.074;21.904;2023-04-01T10:29:38;97393.64;;;13.52;65.46
36138;BME280;67787;50.074;21.904;2023-04-01T10:32:23;97392.10;;;13.52;65.69
36138;BME280;67787;50.074;21.904;2023-04-01T10:40:30;97378.35;;;13.60;65.69
36138;BME280;67787;50.074;21.904;2023-04-01T10:48:44;97365.39;;;14.37;65.60
36138;BME280;67787;50.074;21.904;2023-04-01T10:56:50;97370.09;;;14.68;63.33
36138;BME280;67787;50.074;21.904;2023-04-01T11:14:40;97371.16;;;14.24;61.73
36138;BME280;67787;50.074;21.904;2023-04-01T11:23:33;97378.65;;;14.68;61.43
36138;BME280;67787;50.074;21.904;2023-04-01T11:35:04;97379.91;;;14.96;62.28
36138;BME280;67787;50.074;21.904;2023-04-01T11:38:07;97373.04;;;15.11;60.67
36138;BME280;67787;50.074;21.904;2023-04-01T11:40:59;97374.97;;;15.25;60.30
36138;BME280;67787;50.074;21.904;2023-04-01T11:43:37;97376.23;;;15.27;60.27
36138;BME280;67787;50.074;21.904;2023-04-01T11:46:25;97372.69;;;15.30;60.42
36138;BME280;67787;50.074;21.904;2023-04-01T12:14:43;97394.30;;;14.62;60.25
36138;BME280;67787;50.074;21.904;2023-04-01T12:19:59;97390.38;;;14.88;59.87
36138;BME280;67787;50.074;21.904;2023-04-01T12:22:53;97393.37;;;14.95;58.83
36138;BME280;67787;50.074;21.904;2023-04-01T12:31:58;97390.33;;;14.78;58.85
36138;BME280;67787;50.074;21.904;2023-04-01T12:45:29;97387.94;;;14.46;58.19
36138;BME280;67787;50.074;21.904;2023-04-01T12:55:45;97396.67;;;14.08;57.04
36138;BME280;67787;50.074;21.904;2023-04-01T13:01:30;97394.35;;;14.02;57.05
36138;BME280;67787;50.074;21.904;2023-04-01T13:15:21;97406.05;;;13.90;57.34
36138;BME280;67787;50.074;21.904;2023-04-01T13:26:17;97410.54;;;13.97;57.09
36138;BME280;67787;50.074;21.904;2023-04-01T13:31:44;97414.55;;;14.17;57.33
36138;BME280;67787;50.074;21.904;2023-04-01T13:42:40;97417.09;;;14.52;57.96
36138;BME280;67787;50.074;21.904;2023-04-01T13:45:38;97421.98;;;14.54;57.76
36138;BME280;67787;50.074;21.904;2023-04-01T13:48:35;97418.48;;;14.54;58.14
36138;BME280;67787;50.074;21.904;2023-04-01T13:51:43;97418.59;;;14.51;58.22
36138;BME280;67787;50.074;21.904;2023-04-01T13:54:32;97423.20;;;14.48;57.63
36138;BME280;67787;50.074;21.904;2023-04-01T14:03:40;97425.88;;;14.53;58.28
36138;BME280;67787;50.074;21.904;2023-04-01T14:06:18;97422.96;;;14.58;57.42
36138;BME280;67787;50.074;21.904;2023-04-01T14:26:16;97419.46;;;14.47;57.20
36138;BME280;67787;50.074;21.904;2023-04-01T14:29:26;97419.21;;;14.44;57.86
36138;BME280;67787;50.074;21.904;2023-04-01T14:36:25;97418.86;;;14.34;56.72
36138;BME280;67787;50.074;21.904;2023-04-01T14:42:39;97427.91;;;14.01;56.95
36138;BME280;67787;50.074;21.904;2023-04-01T14:49:32;97435.19;;;13.71;57.22
36138;BME280;67787;50.074;21.904;2023-04-01T14:52:33;97436.06;;;13.57;57.41
36138;BME280;67787;50.074;21.904;2023-04-01T14:55:19;97435.55;;;13.47;57.48
36138;BME280;67787;50.074;21.904;2023-04-01T14:58:17;97440.97;;;13.44;57.48
36138;BME280;67787;50.074;21.904;2023-04-01T15:09:14;97446.21;;;13.43;57.70
36138;BME280;67787;50.074;21.904;2023-04-01T15:11:52;97450.70;;;13.35;57.63
36138;BME280;67787;50.074;21.904;2023-04-01T15:29:06;97463.61;;;13.20;57.69
36138;BME280;67787;50.074;21.904;2023-04-01T15:31:55;97464.60;;;13.16;57.18
36138;BME280;67787;50.074;21.904;2023-04-01T15:35:03;97467.04;;;13.09;57.21
36138;BME280;67787;50.074;21.904;2023-04-01T15:44:37;97480.73;;;12.98;57.51
36138;BME280;67787;50.074;21.904;2023-04-01T15:47:52;97486.79;;;12.96;57.41
36138;BME280;67787;50.074;21.904;2023-04-01T15:50:33;97491.18;;;12.91;57.50
36138;BME280;67787;50.074;21.904;2023-04-01T16:01:07;97506.30;;;12.85;57.70
36138;BME280;67787;50.074;21.904;2023-04-01T16:03:46;97507.52;;;12.78;57.72
36138;BME280;67787;50.074;21.904;2023-04-01T16:14:14;97514.73;;;12.35;57.74
36138;BME280;67787;50.074;21.904;2023-04-01T16:16:53;97522.39;;;12.25;57.86
36138;BME280;67787;50.074;21.904;2023-04-01T16:21:59;97533.75;;;12.09;58.13
36138;BME280;67787;50.074;21.904;2023-04-01T16:32:53;97558.73;;;11.55;59.41
36138;BME280;67787;50.074;21.904;2023-04-01T16:41:04;97561.02;;;11.14;59.20
36138;BME280;67787;50.074;21.904;2023-04-01T16:59:44;97585.78;;;10.63;60.28
36138;BME280;67787;50.074;21.904;2023-04-01T17:02:17;97590.95;;;10.54;60.69
36138;BME280;67787;50.074;21.904;2023-04-01T17:16:10;97609.74;;;10.06;61.03
36138;BME280;67787;50.074;21.904;2023-04-01T17:22:07;97625.46;;;9.93;61.35
36138;BME280;67787;50.074;21.904;2023-04-01T17:43:54;97649.87;;;9.96;61.21
36138;BME280;67787;50.074;21.904;2023-04-01T17:46:37;97651.09;;;9.97;61.33
36138;BME280;67787;50.074;21.904;2023-04-01T17:49:21;97652.08;;;9.99;61.33
36138;BME280;67787;50.074;21.904;2023-04-01T17:52:32;97656.29;;;9.99;61.52
36138;BME280;67787;50.074;21.904;2023-04-01T17:57:55;97660.45;;;9.89;61.68
36138;BME280;67787;50.074;21.904;2023-04-01T18:09:34;97666.23;;;9.76;61.62
36138;BME280;67787;50.074;21.904;2023-04-01T18:12:09;97669.52;;;9.74;61.59
36138;BME280;67787;50.074;21.904;2023-04-01T18:17:21;97668.02;;;9.72;61.79
36138;BME280;67787;50.074;21.904;2023-04-01T18:19:57;97669.13;;;9.69;62.00
36138;BME280;67787;50.074;21.904;2023-04-01T18:22:59;97673.27;;;9.64;62.03
36138;BME280;67787;50.074;21.904;2023-04-01T18:25:34;97674.92;;;9.61;62.29
36138;BME280;67787;50.074;21.904;2023-04-01T18:28:36;97673.59;;;9.59;62.04
36138;BME280;67787;50.074;21.904;2023-04-01T18:31:08;97675.39;;;9.54;62.49
36138;BME280;67787;50.074;21.904;2023-04-01T18:34:12;97676.54;;;9.51;62.27
36138;BME280;67787;50.074;21.904;2023-04-01T18:37:02;97674.02;;;9.46;62.28
36138;BME280;67787;50.074;21.904;2023-04-01T18:39:37;97677.62;;;9.41;62.41
36138;BME280;67787;50.074;21.904;2023-04-01T18:55:59;97691.64;;;9.15;62.76
36138;BME280;67787;50.074;21.904;2023-04-01T18:58:48;97691.92;;;9.16;63.01
36138;BME280;67787;50.074;21.904;2023-04-01T19:01:33;97686.64;;;9.16;63.01
36138;BME280;67787;50.074;21.904;2023-04-01T19:06:46;97687.05;;;9.17;62.95
36138;BME280;67787;50.074;21.904;2023-04-01T19:09:22;97689.30;;;9.16;63.04
36138;BME280;67787;50.074;21.904;2023-04-01T19:11:59;97693.31;;;9.12;63.01
36138;BME280;67787;50.074;21.904;2023-04-01T19:17:54;97694.66;;;9.00;63.29
36138;BME280;67787;50.074;21.904;2023-04-01T19:20:32;97699.66;;;8.94;63.23
36138;BME280;67787;50.074;21.904;2023-04-01T19:26:12;97705.05;;;8.81;63.38
36138;BME280;67787;50.074;21.904;2023-04-01T19:36:55;97715.03;;;8.65;63.70
36138;BME280;67787;50.074;21.904;2023-04-01T19:39:52;97714.58;;;8.64;63.69
36138;BME280;67787;50.074;21.904;2023-04-01T19:42:32;97716.98;;;8.65;63.91
36138;BME280;67787;50.074;21.904;2023-04-01T19:50:40;97724.53;;;8.76;64.12
36138;BME280;67787;50.074;21.904;2023-04-01T19:56:22;97733.25;;;8.86;64.20
36138;BME280;67787;50.074;21.904;2023-04-01T19:58:55;97735.34;;;8.90;64.22
36138;BME280;67787;50.074;21.904;2023-04-01T20:01:49;97734.70;;;8.94;64.41
36138;BME280;67787;50.074;21.904;2023-04-01T20:04:30;97735.20;;;8.98;64.57
36138;BME280;67787;50.074;21.904;2023-04-01T20:07:27;97735.79;;;9.01;64.56
36138;BME280;67787;50.074;21.904;2023-04-01T20:10:17;97741.73;;;9.04;64.57
36138;BME280;67787;50.074;21.904;2023-04-01T20:15:43;97742.85;;;9.07;64.65
36138;BME280;67787;50.074;21.904;2023-04-01T20:18:17;97745.20;;;9.09;64.82
36138;BME280;67787;50.074;21.904;2023-04-01T20:20:59;97750.05;;;9.10;65.11
36138;BME280;67787;50.074;21.904;2023-04-01T20:23:43;97755.02;;;9.10;64.94
36138;BME280;67787;50.074;21.904;2023-04-01T20:26:13;97752.86;;;9.11;65.02
36138;BME280;67787;50.074;21.904;2023-04-01T20:31:42;97760.46;;;9.13;65.25
36138;BME280;67787;50.074;21.904;2023-04-01T20:45:55;97773.98;;;9.12;65.69
36138;BME280;67787;50.074;21.904;2023-04-01T20:48:34;97776.96;;;9.12;65.49
36138;BME280;67787;50.074;21.904;2023-04-01T20:51:06;97775.79;;;9.11;65.76
36138;BME280;67787;50.074;21.904;2023-04-01T21:03:10;97784.13;;;9.15;65.89
36138;BME280;67787;50.074;21.904;2023-04-01T21:09:20;97790.47;;;9.19;65.84
36138;BME280;67787;50.074;21.904;2023-04-01T21:20:18;97802.60;;;9.24;66.19
36138;BME280;67787;50.074;21.904;2023-04-01T21:33:54;97804.31;;;9.17;66.79
36138;BME280;67787;50.074;21.904;2023-04-01T21:53:19;97811.13;;;9.07;67.29
36138;BME280;67787;50.074;21.904;2023-04-01T22:06:50;97818.73;;;9.01;67.34
36138;BME280;67787;50.074;21.904;2023-04-01T22:09:29;97819.52;;;9.00;67.41
36138;BME280;67787;50.074;21.904;2023-04-01T22:12:04;97821.64;;;9.00;67.87
36138;BME280;67787;50.074;21.904;2023-04-01T22:15:40;97818.58;;;8.99;67.49
36138;BME280;67787;50.074;21.904;2023-04-01T22:17:28;97828.45;;;8.99;67.89
36138;BME280;67787;50.074;21.904;2023-04-01T22:20:16;97826.85;;;8.98;67.91
36138;BME280;67787;50.074;21.904;2023-04-01T22:23:42;97825.73;;;8.98;67.90
36138;BME280;67787;50.074;21.904;2023-04-01T22:25:57;97829.70;;;8.97;67.74
36138;BME280;67787;50.074;21.904;2023-04-01T22:28:39;97827.77;;;8.97;67.75
36138;BME280;67787;50.074;21.904;2023-04-01T22:31:11;97833.20;;;8.98;67.97
36138;BME280;67787;50.074;21.904;2023-04-01T22:33:46;97837.14;;;8.97;67.91
36138;BME280;67787;50.074;21.904;2023-04-01T22:39:03;97839.44;;;8.95;67.91
36138;BME280;67787;50.074;21.904;2023-04-01T22:42:12;97840.16;;;8.95;68.20
36138;BME280;67787;50.074;21.904;2023-04-01T22:47:35;97839.01;;;8.92;68.54
36138;BME280;67787;50.074;21.904;2023-04-01T22:50:25;97841.90;;;8.91;68.23
36138;BME280;67787;50.074;21.904;2023-04-01T22:53:01;97843.27;;;8.91;68.21
36138;BME280;67787;50.074;21.904;2023-04-01T22:55:35;97847.84;;;8.91;68.51
36138;BME280;67787;50.074;21.904;2023-04-01T22:58:26;97847.37;;;8.91;68.46
36138;BME280;67787;50.074;21.904;2023-04-01T23:01:06;97850.08;;;8.90;68.35
36138;BME280;67787;50.074;21.904;2023-04-01T23:03:46;97850.17;;;8.89;68.55
36138;BME280;67787;50.074;21.904;2023-04-01T23:06:32;97848.30;;;8.88;68.54
36138;BME280;67787;50.074;21.904;2023-04-01T23:09:33;97855.64;;;8.87;68.62
36138;BME280;67787;50.074;21.904;2023-04-01T23:12:07;97856.81;;;8.84;68.80
36138;BME280;67787;50.074;21.904;2023-04-01T23:14:46;97855.16;;;8.83;68.68
36138;BME280;67787;50.074;21.904;2023-04-01T23:22:53;97858.86;;;8.78;68.70